Temp: 13.9°C   Baro: 1020.4mb
  Wind: 6.0mph   Dir: SW (217°)
  Rain: 0.0mm (0.0mm/hr)
  Solar: 315W/m2  Hum: 74%
 
Bath Spa Weather Historical Data
 
Daily Summary for November 14, 2018 Units:  Metric    English   Both
Next Day »
Daily Weekly Monthly Yearly Custom
  Current: High: Low: Average:
Temperature: 13.9 °C 14.3 °C 11.5 °C 12.1 °C
Dew Point: 9.3 °C 10.2 °C 9.1 °C 9.4 °C
Humidity: 74% 86% 74% 84%
Wind Speed: 11.1km/h 27.4km/h 0.0km/h 8km/h
Wind Gust: 29.0km/h 32.2km/h - -
Wind directionSW - - SSW
Pressure: 1020.2 hPa 1022.2 hPa 1019.9 hPa -
Precipitation: 0.0 mm      
Historical Graphs
 
 
Tabular Data for November 14, 2018
Time Temperature Dew Point Pressure Wind direction Wind Speed Wind Gust Humidity Rainfall Rate (Hourly) solar
00:03 11.7 °C 9.3 °C 1022.2 hPa SW 3.2 km/h 11.3 km/h 85% 0.0 mm 0.00 W/m2
00:08 11.7 °C 9.3 °C 1022.2 hPa South 7.9 km/h 12.9 km/h 85% 0.0 mm 0.00 W/m2
00:13 11.7 °C 9.3 °C 1022.2 hPa SSW 11.1 km/h 12.9 km/h 85% 0.0 mm 0.00 W/m2
00:18 11.7 °C 9.1 °C 1022.2 hPa Calm   6.4 km/h 84% 0.0 mm 0.00 W/m2
00:23 11.7 °C 9.1 °C 1022.2 hPa SW 3.2 km/h 9.7 km/h 84% 0.0 mm 0.00 W/m2
00:28 11.7 °C 9.3 °C 1022.2 hPa SSW 6.4 km/h 11.3 km/h 85% 0.0 mm 0.00 W/m2
00:33 11.8 °C 9.2 °C 1021.9 hPa SSW 4.7 km/h 9.7 km/h 84% 0.0 mm 0.00 W/m2
00:38 11.8 °C 9.2 °C 1021.9 hPa South 11.1 km/h 11.3 km/h 84% 0.0 mm 0.00 W/m2
00:43 11.8 °C 9.2 °C 1021.9 hPa South 9.7 km/h 19.3 km/h 84% 0.0 mm 0.00 W/m2
00:48 11.8 °C 9.2 °C 1021.9 hPa SSW 7.9 km/h 14.5 km/h 84% 0.0 mm 0.00 W/m2
00:53 11.8 °C 9.2 °C 1021.9 hPa SSW 4.7 km/h 11.3 km/h 84% 0.0 mm 0.00 W/m2
00:58 11.8 °C 9.2 °C 1021.6 hPa South 9.7 km/h 11.3 km/h 84% 0.0 mm 0.00 W/m2
01:03 11.8 °C 9.2 °C 1021.6 hPa South 13.0 km/h 12.9 km/h 84% 0.0 mm 0.00 W/m2
01:08 11.8 °C 9.2 °C 1021.6 hPa SSW 9.7 km/h 12.9 km/h 84% 0.0 mm 0.00 W/m2
01:13 11.9 °C 9.3 °C 1021.6 hPa SW 6.4 km/h 14.5 km/h 84% 0.0 mm 0.00 W/m2
01:18 11.9 °C 9.3 °C 1021.6 hPa SSW 4.7 km/h 14.5 km/h 84% 0.0 mm 0.00 W/m2
01:23 11.9 °C 9.3 °C 1021.2 hPa SSW 14.3 km/h 20.9 km/h 84% 0.0 mm 0.00 W/m2
01:28 11.9 °C 9.3 °C 1021.2 hPa SW 4.7 km/h 6.4 km/h 84% 0.0 mm 0.00 W/m2
01:33 12.0 °C 9.4 °C 1021.2 hPa South 3.2 km/h 22.5 km/h 84% 0.0 mm 0.00 W/m2
01:38 11.9 °C 9.3 °C 1021.2 hPa SSW 1.4 km/h 11.3 km/h 84% 0.0 mm 0.00 W/m2
01:43 11.9 °C 9.5 °C 1021.2 hPa SSW 3.2 km/h 12.9 km/h 85% 0.0 mm 0.00 W/m2
01:48 12.0 °C 9.6 °C 1021.2 hPa SSW 7.9 km/h 17.7 km/h 85% 0.0 mm 0.00 W/m2
01:53 12.0 °C 9.6 °C 1021.2 hPa SSW 4.7 km/h 14.5 km/h 85% 0.0 mm 0.00 W/m2
01:58 12.0 °C 9.6 °C 1021.2 hPa SSW 4.7 km/h 11.3 km/h 85% 0.0 mm 0.00 W/m2
02:03 12.0 °C 9.6 °C 1021.2 hPa SSW 6.4 km/h 12.9 km/h 85% 0.0 mm 0.00 W/m2
02:08 12.0 °C 9.6 °C 1021.2 hPa South 6.4 km/h 14.5 km/h 85% 0.0 mm 0.00 W/m2
02:13 12.0 °C 9.6 °C 1021.2 hPa WSW 11.1 km/h 11.3 km/h 85% 0.0 mm 0.00 W/m2
02:18 12.0 °C 9.6 °C 1020.9 hPa South 9.7 km/h 16.1 km/h 85% 0.0 mm 0.00 W/m2
02:23 12.0 °C 9.6 °C 1020.9 hPa South 11.1 km/h 16.1 km/h 85% 0.0 mm 0.00 W/m2
02:28 12.0 °C 9.4 °C 1020.9 hPa SSW 4.7 km/h 12.9 km/h 84% 0.0 mm 0.00 W/m2
02:33 12.0 °C 9.4 °C 1020.9 hPa SSW 13.0 km/h 22.5 km/h 84% 0.0 mm 0.00 W/m2
02:38 12.0 °C 9.4 °C 1020.5 hPa SSW 9.7 km/h 14.5 km/h 84% 0.0 mm 0.00 W/m2
02:43 12.0 °C 9.4 °C 1020.5 hPa WSW 9.7 km/h 14.5 km/h 84% 0.0 mm 0.00 W/m2
02:48 12.1 °C 9.5 °C 1020.5 hPa South 9.7 km/h 20.9 km/h 84% 0.0 mm 0.00 W/m2
02:53 12.0 °C 9.4 °C 1020.5 hPa SSW 6.4 km/h 17.7 km/h 84% 0.0 mm 0.00 W/m2
02:58 12.2 °C 9.4 °C 1020.9 hPa SSW 4.7 km/h 16.1 km/h 83% 0.0 mm 0.00 W/m2
03:03 12.1 °C 9.3 °C 1020.5 hPa South 4.7 km/h 16.1 km/h 83% 0.0 mm 0.00 W/m2
03:08 12.1 °C 9.3 °C 1020.5 hPa SW 6.4 km/h 17.7 km/h 83% 0.0 mm 0.00 W/m2
03:13 12.0 °C 9.2 °C 1020.5 hPa SSW 9.7 km/h 20.9 km/h 83% 0.0 mm 0.00 W/m2
03:18 12.1 °C 9.3 °C 1020.5 hPa SW 4.7 km/h 17.7 km/h 83% 0.0 mm 0.00 W/m2
03:23 12.0 °C 9.2 °C 1020.5 hPa WSW 13.0 km/h 16.1 km/h 83% 0.0 mm 0.00 W/m2
03:28 12.0 °C 9.2 °C 1020.5 hPa SW 3.2 km/h 12.9 km/h 83% 0.0 mm 0.00 W/m2
03:33 12.0 °C 9.2 °C 1020.2 hPa SSW 6.4 km/h 22.5 km/h 83% 0.0 mm 0.00 W/m2
03:38 12.0 °C 9.2 °C 1020.2 hPa SW 11.1 km/h 17.7 km/h 83% 0.0 mm 0.00 W/m2
03:43 12.0 °C 9.4 °C 1020.2 hPa SSW 11.1 km/h 17.7 km/h 84% 0.0 mm 0.00 W/m2
03:48 11.9 °C 9.3 °C 1020.2 hPa South 6.4 km/h 19.3 km/h 84% 0.0 mm 0.00 W/m2
03:53 11.9 °C 9.3 °C 1020.2 hPa SW 9.7 km/h 29.0 km/h 84% 0.0 mm 0.00 W/m2
03:58 11.9 °C 9.3 °C 1020.2 hPa SW 14.3 km/h 20.9 km/h 84% 0.0 mm 0.00 W/m2
04:03 11.9 °C 9.3 °C 1019.9 hPa SW 9.7 km/h 17.7 km/h 84% 0.0 mm 0.00 W/m2
04:08 11.9 °C 9.3 °C 1019.9 hPa SSW 7.9 km/h 24.1 km/h 84% 0.0 mm 0.00 W/m2
04:13 11.9 °C 9.3 °C 1019.9 hPa SW 9.7 km/h 24.1 km/h 84% 0.0 mm 0.00 W/m2
04:18 11.8 °C 9.2 °C 1019.9 hPa SSW 7.9 km/h 17.7 km/h 84% 0.0 mm 0.00 W/m2
04:23 11.8 °C 9.4 °C 1019.9 hPa SSW 9.7 km/h 24.1 km/h 85% 0.0 mm 0.00 W/m2
04:28 11.8 °C 9.4 °C 1019.9 hPa SW 9.7 km/h 16.1 km/h 85% 0.0 mm 0.00 W/m2
04:33 11.8 °C 9.4 °C 1019.9 hPa SSW 9.7 km/h 20.9 km/h 85% 0.0 mm 0.00 W/m2
04:43 11.8 °C 9.4 °C 1020.2 hPa WSW 14.3 km/h 22.5 km/h 85% 0.0 mm 0.00 W/m2
04:48 11.8 °C 9.4 °C 1020.2 hPa SW 13.0 km/h 19.3 km/h 85% 0.0 mm 0.00 W/m2
04:53 11.8 °C 9.5 °C 1020.2 hPa SW 9.7 km/h 17.7 km/h 86% 0.0 mm 0.00 W/m2
04:58 11.8 °C 9.5 °C 1020.2 hPa SW 9.7 km/h 14.5 km/h 86% 0.0 mm 0.00 W/m2
05:03 11.7 °C 9.4 °C 1020.2 hPa SSW 7.9 km/h 20.9 km/h 86% 0.0 mm 0.00 W/m2
05:08 11.8 °C 9.5 °C 1020.2 hPa SSW 16.3 km/h 20.9 km/h 86% 0.0 mm 0.00 W/m2
05:13 11.7 °C 9.4 °C 1020.2 hPa WSW 22.7 km/h 22.5 km/h 86% 0.0 mm 0.00 W/m2
05:18 11.7 °C 9.4 °C 1020.2 hPa SSW 11.1 km/h 25.7 km/h 86% 0.0 mm 0.00 W/m2
05:23 11.7 °C 9.3 °C 1020.2 hPa SW 27.4 km/h 27.4 km/h 85% 0.0 mm 0.00 W/m2
05:28 11.7 °C 9.4 °C 1020.2 hPa WSW 9.7 km/h 16.1 km/h 86% 0.0 mm 0.00 W/m2
05:33 11.7 °C 9.3 °C 1020.2 hPa SSW 4.7 km/h 14.5 km/h 85% 0.0 mm 0.00 W/m2
05:38 11.6 °C 9.2 °C 1020.2 hPa SSW 13.0 km/h 14.5 km/h 85% 0.0 mm 0.00 W/m2
05:43 11.6 °C 9.3 °C 1020.2 hPa SW 14.3 km/h 14.5 km/h 86% 0.0 mm 0.00 W/m2
05:48 11.7 °C 9.4 °C 1020.2 hPa SW 16.3 km/h 20.9 km/h 86% 0.0 mm 0.00 W/m2
05:53 11.7 °C 9.3 °C 1020.2 hPa SW 7.9 km/h 16.1 km/h 85% 0.0 mm 0.00 W/m2
05:58 11.6 °C 9.3 °C 1019.9 hPa SW 11.1 km/h 17.7 km/h 86% 0.0 mm 0.00 W/m2
06:03 11.5 °C 9.2 °C 1019.9 hPa SSW 4.7 km/h 16.1 km/h 86% 0.0 mm 0.00 W/m2
06:08 11.5 °C 9.2 °C 1019.9 hPa SW 9.7 km/h 9.7 km/h 86% 0.0 mm 0.00 W/m2
06:13 11.5 °C 9.2 °C 1020.2 hPa WSW 4.7 km/h 9.7 km/h 86% 0.0 mm 0.00 W/m2
06:18 11.5 °C 9.2 °C 1020.2 hPa SSW 4.7 km/h 12.9 km/h 86% 0.0 mm 0.00 W/m2
06:23 11.5 °C 9.2 °C 1020.2 hPa SW 9.7 km/h 14.5 km/h 86% 0.0 mm 0.00 W/m2
06:29 11.6 °C 9.3 °C 1020.2 hPa SSW 4.7 km/h 6.4 km/h 86% 0.0 mm 0.00 W/m2
06:34 11.5 °C 9.2 °C 1020.2 hPa South 7.9 km/h 14.5 km/h 86% 0.0 mm 0.00 W/m2
06:39 11.6 °C 9.3 °C 1020.2 hPa Calm   6.4 km/h 86% 0.0 mm 0.00 W/m2
06:44 11.7 °C 9.4 °C 1020.2 hPa Calm   12.9 km/h 86% 0.0 mm 0.00 W/m2
06:49 11.7 °C 9.3 °C 1020.2 hPa ESE 4.7 km/h 12.9 km/h 85% 0.0 mm 0.00 W/m2
06:54 11.7 °C 9.3 °C 1020.5 hPa South 6.4 km/h 14.5 km/h 85% 0.0 mm 0.00 W/m2
06:59 11.7 °C 9.3 °C 1020.5 hPa Calm   6.4 km/h 85% 0.0 mm 0.00 W/m2
07:04 11.7 °C 9.4 °C 1020.5 hPa SSW 6.4 km/h 9.7 km/h 86% 0.0 mm 0.00 W/m2
07:09 11.7 °C 9.4 °C 1020.5 hPa SSW 1.4 km/h 6.4 km/h 86% 0.0 mm 0.00 W/m2
07:14 11.6 °C 9.3 °C 1020.5 hPa SW 3.2 km/h 9.7 km/h 86% 0.0 mm 0.00 W/m2
07:19 11.5 °C 9.2 °C 1020.5 hPa SW 9.7 km/h 12.9 km/h 86% 0.0 mm 0.00 W/m2
07:24 11.5 °C 9.2 °C 1020.5 hPa South 14.3 km/h 19.3 km/h 86% 0.0 mm 0.00 W/m2
07:29 11.5 °C 9.2 °C 1020.5 hPa WSW 6.4 km/h 19.3 km/h 86% 0.0 mm 0.00 W/m2
07:34 11.5 °C 9.1 °C 1020.5 hPa SW 1.4 km/h 16.1 km/h 85% 0.0 mm 0.00 W/m2
07:39 11.5 °C 9.1 °C 1020.5 hPa Calm   11.3 km/h 85% 0.0 mm 7.00 W/m2
07:44 11.5 °C 9.1 °C 1020.5 hPa SSW 4.7 km/h 17.7 km/h 85% 0.0 mm 9.00 W/m2
07:49 11.5 °C 9.1 °C 1020.5 hPa SSW 6.4 km/h 16.1 km/h 85% 0.0 mm 11.00 W/m2
07:54 11.5 °C 9.1 °C 1020.9 hPa South 1.4 km/h 12.9 km/h 85% 0.0 mm 12.00 W/m2
07:59 11.5 °C 9.1 °C 1020.9 hPa South 3.2 km/h 12.9 km/h 85% 0.0 mm 14.00 W/m2
08:04 11.5 °C 9.1 °C 1020.9 hPa SSW 6.4 km/h 20.9 km/h 85% 0.0 mm 30.00 W/m2
08:09 11.5 °C 9.1 °C 1020.9 hPa South 16.3 km/h 17.7 km/h 85% 0.0 mm 26.00 W/m2
08:14 11.7 °C 9.3 °C 1020.9 hPa SSW 6.4 km/h 16.1 km/h 85% 0.0 mm 23.00 W/m2
08:19 11.7 °C 9.3 °C 1020.9 hPa SSW 7.9 km/h 12.9 km/h 85% 0.0 mm 23.00 W/m2
08:24 11.7 °C 9.3 °C 1020.9 hPa SSW 4.7 km/h 16.1 km/h 85% 0.0 mm 16.00 W/m2
08:29 11.8 °C 9.4 °C 1020.9 hPa SSW 6.4 km/h 8.0 km/h 85% 0.0 mm 19.00 W/m2
08:34 11.8 °C 9.2 °C 1020.9 hPa SW 3.2 km/h 12.9 km/h 84% 0.0 mm 40.00 W/m2
08:39 11.8 °C 9.2 °C 1020.9 hPa SW 3.2 km/h 11.3 km/h 84% 0.0 mm 46.00 W/m2
08:44 11.8 °C 9.2 °C 1020.9 hPa SSW 4.7 km/h 8.0 km/h 84% 0.0 mm 53.00 W/m2
08:49 11.9 °C 9.5 °C 1020.9 hPa Calm   9.7 km/h 85% 0.0 mm 60.00 W/m2
08:54 12.0 °C 9.4 °C 1020.9 hPa Calm   9.7 km/h 84% 0.0 mm 88.00 W/m2
09:04 12.2 °C 9.6 °C 1020.9 hPa West 13.0 km/h 14.5 km/h 84% 0.0 mm 84.00 W/m2
09:09 12.2 °C 9.6 °C 1020.9 hPa SSW 3.2 km/h 12.9 km/h 84% 0.0 mm 63.00 W/m2
09:14 12.3 °C 9.7 °C 1020.9 hPa SW 6.4 km/h 19.3 km/h 84% 0.0 mm 98.00 W/m2
09:19 12.3 °C 9.7 °C 1020.9 hPa SW 13.0 km/h 17.7 km/h 84% 0.0 mm 97.00 W/m2
09:24 12.3 °C 9.7 °C 1020.9 hPa WSW 13.0 km/h 19.3 km/h 84% 0.0 mm 93.00 W/m2
09:29 12.4 °C 9.6 °C 1020.9 hPa SSW 9.7 km/h 16.1 km/h 83% 0.0 mm 76.00 W/m2
09:34 12.4 °C 9.6 °C 1020.9 hPa SW 6.4 km/h 11.3 km/h 83% 0.0 mm 69.00 W/m2
09:39 12.4 °C 9.6 °C 1020.9 hPa SW 6.4 km/h 14.5 km/h 83% 0.0 mm 62.00 W/m2
09:44 12.4 °C 9.8 °C 1020.9 hPa SW 4.7 km/h 8.0 km/h 84% 0.0 mm 91.00 W/m2
09:49 12.4 °C 9.6 °C 1020.9 hPa SSW 4.7 km/h 20.9 km/h 83% 0.0 mm 132.00 W/m2
09:54 12.5 °C 9.5 °C 1020.5 hPa South 7.9 km/h 20.9 km/h 82% 0.0 mm 169.00 W/m2
10:04 12.7 °C 9.5 °C 1020.5 hPa SW 6.4 km/h 20.9 km/h 81% 0.0 mm 144.00 W/m2
10:09 12.7 °C 9.5 °C 1020.5 hPa SSW 6.4 km/h 16.1 km/h 81% 0.0 mm 146.00 W/m2
10:14 12.8 °C 9.6 °C 1020.9 hPa SSW 6.4 km/h 11.3 km/h 81% 0.0 mm 197.00 W/m2
10:19 12.9 °C 9.7 °C 1020.9 hPa SSW 3.2 km/h 14.5 km/h 81% 0.0 mm 165.00 W/m2
10:24 13.0 °C 9.6 °C 1020.9 hPa South 6.4 km/h 19.3 km/h 80% 0.0 mm 181.00 W/m2
10:29 13.0 °C 9.6 °C 1020.9 hPa SW 3.2 km/h 12.9 km/h 80% 0.0 mm 207.00 W/m2
10:34 13.1 °C 9.7 °C 1020.9 hPa SW 9.7 km/h 19.3 km/h 80% 0.0 mm 176.00 W/m2
10:39 13.0 °C 9.6 °C 1020.9 hPa South 4.7 km/h 20.9 km/h 80% 0.0 mm 183.00 W/m2
10:44 13.0 °C 9.6 °C 1020.5 hPa South 11.1 km/h 20.9 km/h 80% 0.0 mm 218.00 W/m2
10:49 13.1 °C 9.7 °C 1020.5 hPa South 11.1 km/h 12.9 km/h 80% 0.0 mm 199.00 W/m2
10:54 13.2 °C 9.8 °C 1020.5 hPa SW 17.7 km/h 25.7 km/h 80% 0.0 mm 209.00 W/m2
10:59 13.1 °C 9.7 °C 1020.5 hPa SW 6.4 km/h 19.3 km/h 80% 0.0 mm 204.00 W/m2
11:04 13.2 °C 9.6 °C 1020.5 hPa WSW 9.7 km/h 19.3 km/h 79% 0.0 mm 188.00 W/m2
11:09 13.3 °C 9.7 °C 1020.5 hPa SW 11.1 km/h 17.7 km/h 79% 0.0 mm 267.00 W/m2
11:14 13.3 °C 9.7 °C 1020.5 hPa SSW 24.1 km/h 24.1 km/h 79% 0.0 mm 260.00 W/m2
11:19 13.5 °C 9.9 °C 1020.5 hPa SW 7.9 km/h 14.5 km/h 79% 0.0 mm 236.00 W/m2
11:24 13.8 °C 10.0 °C 1020.5 hPa SW 9.7 km/h 16.1 km/h 78% 0.0 mm 216.00 W/m2
11:29 14.0 °C 10.2 °C 1020.5 hPa SW 16.3 km/h 16.1 km/h 78% 0.0 mm 501.00 W/m2
11:34 14.3 °C 10.1 °C 1020.5 hPa SSW 9.7 km/h 19.3 km/h 76% 0.0 mm 482.00 W/m2
11:39 14.3 °C 9.9 °C 1020.2 hPa South 6.4 km/h 19.3 km/h 75% 0.0 mm 279.00 W/m2
11:44 14.2 °C 9.6 °C 1020.5 hPa SSW 19.5 km/h 32.2 km/h 74% 0.0 mm 221.00 W/m2
11:49 13.9 °C 9.3 °C 1020.2 hPa SW 11.1 km/h 29.0 km/h 74% 0.0 mm 281.00 W/m2